Fort Worth - NOAA's Hourly Summary for Monday, April 17, 2017
Hour Temp
(f)
RH
(%)
Solar Rad.
(MJ/m2)
Rainfall
(in)
Wind
(mph)
4/17/2017 12:00 AM 71 81 0 0 1.66
4/17/2017 1:00 AM 71 82 0 0 2.81
4/17/2017 2:00 AM 72 80 0 0 4.1
4/17/2017 3:00 AM 72 81 0 0 2.95
4/17/2017 4:00 AM 70 84 0 0 2.35
4/17/2017 5:00 AM 69 87 0 0 2.82
4/17/2017 6:00 AM 68 89 0 0 3.93
4/17/2017 7:00 AM 68 90 0.05 0 4.29
4/17/2017 8:00 AM 69 88 0.29 0 4.88
4/17/2017 9:00 AM 70 84 0.55 0 4.2
4/17/2017 10:00 AM 72 80 0.72 0 6.8
4/17/2017 11:00 AM 73 77 1.23 0 7.07
4/17/2017 12:00 PM 74 75 1.5 0 8.79
4/17/2017 1:00 PM 75 70 1.27 0 7.32
4/17/2017 2:00 PM 68 79 0.79 0 17.99
4/17/2017 3:00 PM 64 84 0.31 0.76 13.32
4/17/2017 4:00 PM 62 91 0.09 0.18 14.23
4/17/2017 5:00 PM 63 87 0.11 0.02 8.41
4/17/2017 6:00 PM 63 88 0.07 0.01 3.06
4/17/2017 7:00 PM 63 88 0.05 0 2.77
4/17/2017 8:00 PM 64 88 0.01 0 5.38
4/17/2017 9:00 PM 63 89 0 0 6.34
4/17/2017 10:00 PM 63 89 0 0 3.77
4/17/2017 11:00 PM 62 91 0 0 3.29
Data Summary 67 84 7.04 0.97 5.94